Time;durP1;ratioP1;P1;durP2;ratioP2;P2;SDS_P1;SDS_P2;PMS_P1;PMS_P2;Temp;Humidity;BMP_temperature;BMP_pressure;BME280_temperature;BME280_humidity;BME280_pressure;Samples;Min_cycle;Max_cycle;Signal;HPM_P1;HPM_P2
2021/09/01 00:01:28;;;;;;;9.30;6.12;;;;;;;16.38;64.23;98891.68;1769781;79;21034;-43
2021/09/01 00:03:55;;;;;;;6.92;6.00;;;;;;;16.33;64.50;98892.12;1771912;79;21029;-42
2021/09/01 00:06:21;;;;;;;13.30;6.70;;;;;;;16.31;64.68;98899.98;1771739;81;21126;-42
2021/09/01 00:08:51;;;;;;;10.43;7.35;;;;;;;16.30;64.79;98891.59;1774809;79;21020;-43
2021/09/01 00:11:20;;;;;;;10.77;5.83;;;;;;;16.27;64.90;98884.18;1789388;79;20997;-42
2021/09/01 00:13:47;;;;;;;7.85;5.90;;;;;;;16.29;64.83;98884.56;1781288;78;20976;-42
2021/09/01 00:16:26;;;;;;;7.90;6.10;;;;;;;16.32;64.71;98888.62;1762598;80;21087;-41
2021/09/01 00:18:56;;;;;;;8.53;5.45;;;;;;;16.34;64.46;98886.84;1787951;80;21178;-41
2021/09/01 00:21:23;;;;;;;10.18;5.85;;;;;;;16.33;64.32;98888.02;1787325;78;21047;-41
2021/09/01 00:23:50;;;;;;;10.35;5.55;;;;;;;16.29;64.29;98883.20;1777005;80;21519;-41
2021/09/01 00:26:18;;;;;;;10.10;5.85;;;;;;;16.27;64.34;98886.33;1788632;80;21025;-41
2021/09/01 00:28:45;;;;;;;11.12;6.20;;;;;;;16.27;64.31;98888.28;1787335;78;21518;-41
2021/09/01 00:31:11;;;;;;;11.55;5.85;;;;;;;16.23;64.34;98890.29;1788582;79;21099;-41
2021/09/01 00:33:39;;;;;;;10.60;5.80;;;;;;;16.18;64.40;98883.31;1787892;78;20992;-41
2021/09/01 00:36:05;;;;;;;11.97;5.70;;;;;;;16.14;64.52;98885.91;1784736;80;20972;-41
2021/09/01 00:38:32;;;;;;;6.80;5.22;;;;;;;16.16;64.50;98889.80;1789010;79;21308;-41
2021/09/01 00:40:58;;;;;;;7.83;5.28;;;;;;;16.21;64.49;98885.84;1787872;80;21530;-41
2021/09/01 00:43:25;;;;;;;8.85;5.40;;;;;;;16.22;64.54;98890.10;1774523;79;21075;-41
2021/09/01 00:45:52;;;;;;;8.75;5.90;;;;;;;16.23;64.62;98889.70;1772878;78;21546;-41
2021/09/01 00:48:19;;;;;;;7.70;5.83;;;;;;;16.23;64.49;98886.19;1764530;79;20934;-41
2021/09/01 00:50:54;;;;;;;8.43;5.95;;;;;;;16.21;64.53;98892.09;1765933;79;20997;-41
2021/09/01 00:53:22;;;;;;;10.93;5.97;;;;;;;16.20;64.60;98892.48;1773048;80;21036;-41
2021/09/01 00:55:50;;;;;;;12.25;5.65;;;;;;;16.16;64.62;98891.75;1788120;80;21094;-41
2021/09/01 00:58:16;;;;;;;9.60;5.90;;;;;;;16.14;64.63;98897.63;1787814;78;20973;-41
2021/09/01 01:03:26;;;;;;;9.98;5.67;;;;;;;16.16;64.67;98893.91;1785726;78;21606;-41
2021/09/01 01:05:57;;;;;;;13.60;6.30;;;;;;;16.17;64.52;98885.11;1786583;80;21067;-41
2021/09/01 01:08:27;;;;;;;10.72;5.50;;;;;;;16.16;64.70;98884.91;1760479;78;21125;-41
2021/09/01 01:10:55;;;;;;;9.88;6.10;;;;;;;16.15;64.73;98878.67;1788889;79;21003;-41
2021/09/01 01:13:22;;;;;;;12.80;5.95;;;;;;;16.12;64.64;98884.19;1788048;79;20961;-41
2021/09/01 01:15:51;;;;;;;10.88;6.33;;;;;;;16.07;64.75;98880.69;1783733;78;21499;-41
2021/09/01 01:18:18;;;;;;;6.60;5.53;;;;;;;16.05;64.74;98882.30;1781005;79;21019;-41
2021/09/01 01:20:49;;;;;;;9.40;5.55;;;;;;;16.02;64.90;98877.65;1787946;80;21523;-41
2021/09/01 01:23:17;;;;;;;11.45;5.55;;;;;;;16.03;64.91;98875.08;1787337;78;21013;-41
2021/09/01 01:25:44;;;;;;;8.38;5.92;;;;;;;16.06;64.95;98881.12;1779110;80;20960;-41
2021/09/01 01:28:11;;;;;;;10.43;6.05;;;;;;;16.07;64.88;98867.02;1784713;78;20977;-41
2021/09/01 01:30:40;;;;;;;6.53;5.70;;;;;;;16.08;64.96;98870.53;1787977;79;20996;-41
2021/09/01 01:33:08;;;;;;;8.78;6.08;;;;;;;16.08;64.94;98869.94;1766864;80;22655;-41
2021/09/01 01:35:43;;;;;;;9.85;6.37;;;;;;;16.10;65.07;98865.44;1786309;78;21060;-41
2021/09/01 01:38:14;;;;;;;9.03;6.40;;;;;;;16.10;65.19;98865.44;1787593;80;20980;-41
2021/09/01 01:40:41;;;;;;;9.98;6.17;;;;;;;16.09;65.25;98863.30;1776364;78;20972;-41
2021/09/01 01:43:08;;;;;;;11.25;6.37;;;;;;;16.12;65.20;98857.59;1787102;80;21036;-41
2021/09/01 01:45:39;;;;;;;8.35;6.40;;;;;;;16.18;65.11;98852.45;1787695;78;22050;-41
2021/09/01 01:48:07;;;;;;;9.03;5.90;;;;;;;16.20;64.97;98848.14;1787343;80;21051;-41
2021/09/01 01:50:35;;;;;;;8.08;5.70;;;;;;;16.22;65.09;98848.48;1788920;80;21652;-41
2021/09/01 01:53:01;;;;;;;10.85;5.75;;;;;;;16.24;65.11;98846.72;1788613;80;20945;-41
2021/09/01 01:55:28;;;;;;;8.90;5.85;;;;;;;16.25;65.12;98846.31;1786250;78;21514;-41
2021/09/01 01:57:55;;;;;;;10.50;6.30;;;;;;;16.25;65.31;98849.05;1770410;80;21127;-41
2021/09/01 02:00:21;;;;;;;6.80;5.72;;;;;;;16.24;65.26;98845.34;1771132;80;20893;-41
2021/09/01 02:02:48;;;;;;;13.93;5.55;;;;;;;16.27;65.19;98841.20;1787174;80;20993;-41
2021/09/01 02:05:15;;;;;;;8.28;5.45;;;;;;;16.31;65.25;98833.75;1787039;78;21794;-42
2021/09/01 02:07:42;;;;;;;10.03;6.25;;;;;;;16.35;65.25;98827.63;1787465;80;21075;-41
2021/09/01 02:10:09;;;;;;;9.30;5.33;;;;;;;16.36;65.12;98824.30;1784528;80;21101;-41
2021/09/01 02:12:40;;;;;;;8.75;5.72;;;;;;;16.35;64.92;98824.90;1783894;78;21025;-41
2021/09/01 02:15:08;;;;;;;8.83;5.78;;;;;;;16.34;64.71;98819.83;1786473;79;21011;-41
2021/09/01 02:17:35;;;;;;;10.03;5.95;;;;;;;16.31;64.68;98828.86;1774472;78;21476;-40
2021/09/01 02:20:04;;;;;;;16.90;6.75;;;;;;;16.27;64.61;98819.31;1784287;79;21071;-41
2021/09/01 02:22:30;;;;;;;9.15;6.22;;;;;;;16.24;64.68;98818.00;1783955;80;21098;-41
2021/09/01 02:24:57;;;;;;;11.50;5.75;;;;;;;16.21;64.75;98824.30;1784677;78;20934;-41
2021/09/01 02:27:24;;;;;;;10.88;5.20;;;;;;;16.19;64.50;98826.66;1785116;80;21523;-41
2021/09/01 02:29:51;;;;;;;10.15;5.15;;;;;;;16.17;64.46;98827.05;1784570;78;21472;-41
2021/09/01 02:32:19;;;;;;;10.72;5.65;;;;;;;16.18;64.38;98836.04;1784698;80;21017;-41
2021/09/01 02:34:46;;;;;;;8.95;5.35;;;;;;;16.14;64.20;98832.58;1777396;80;21168;-41
2021/09/01 02:37:13;;;;;;;11.95;6.12;;;;;;;16.09;64.39;98829.11;1784999;78;21005;-41
2021/09/01 02:39:39;;;;;;;8.58;5.62;;;;;;;16.05;64.43;98831.12;1788355;78;21033;-41
2021/09/01 02:42:06;;;;;;;10.93;6.08;;;;;;;15.99;64.41;98828.64;1785705;79;21032;-41
2021/09/01 02:44:33;;;;;;;11.40;6.95;;;;;;;15.93;64.54;98826.17;1786378;80;21048;-41
2021/09/01 02:47:00;;;;;;;11.40;6.50;;;;;;;15.86;64.69;98821.38;1785622;80;21100;-41
2021/09/01 02:49:26;;;;;;;11.80;6.17;;;;;;;15.85;64.77;98816.50;1785656;80;20961;-41
2021/09/01 02:51:52;;;;;;;10.10;6.05;;;;;;;15.88;64.82;98812.16;1785750;80;21107;-41
2021/09/01 02:54:19;;;;;;;9.23;6.35;;;;;;;15.90;64.82;98814.69;1784684;78;21012;-41
2021/09/01 02:56:46;;;;;;;8.80;6.28;;;;;;;15.91;64.84;98818.20;1782632;78;21088;-41
2021/09/01 02:59:13;;;;;;;8.70;5.78;;;;;;;15.90;64.81;98814.69;1784930;80;21125;-41
2021/09/01 03:01:40;;;;;;;9.68;6.35;;;;;;;15.90;64.79;98807.86;1783462;78;20957;-41
2021/09/01 03:04:07;;;;;;;9.20;6.33;;;;;;;15.89;64.84;98809.03;1784948;80;21778;-41
2021/09/01 03:06:34;;;;;;;8.53;6.25;;;;;;;15.89;64.79;98809.03;1785749;80;21005;-41
2021/09/01 03:09:01;;;;;;;12.93;5.87;;;;;;;15.86;64.74;98800.88;1783658;78;21088;-41
2021/09/01 03:11:28;;;;;;;6.35;5.00;;;;;;;15.84;64.70;98799.14;1774574;80;21079;-41
2021/09/01 03:13:55;;;;;;;9.00;6.03;;;;;;;15.84;64.38;98805.37;1746196;81;21835;-41
2021/09/01 03:16:22;;;;;;;10.55;5.85;;;;;;;15.86;64.37;98804.39;1753683;79;21018;-41
2021/09/01 03:18:48;;;;;;;10.10;6.42;;;;;;;15.87;64.51;98801.84;1763731;80;21010;-41
2021/09/01 03:21:15;;;;;;;10.55;6.25;;;;;;;15.83;64.70;98802.45;1771228;79;20988;-41
2021/09/01 03:23:41;;;;;;;9.55;6.58;;;;;;;15.77;64.61;98801.38;1770471;79;21150;-41
2021/09/01 03:26:08;;;;;;;10.90;6.37;;;;;;;15.69;64.72;98799.88;1746180;81;21072;-41
2021/09/01 03:28:34;;;;;;;9.40;6.85;;;;;;;15.54;65.06;98798.50;1758358;79;21077;-41
2021/09/01 03:31:01;;;;;;;8.73;6.60;;;;;;;15.41;65.43;98796.05;1770344;79;20997;-41
2021/09/01 03:33:27;;;;;;;11.50;6.50;;;;;;;15.32;65.82;98798.48;1763619;81;21061;-41
2021/09/01 03:35:54;;;;;;;8.73;5.45;;;;;;;15.31;66.24;98795.55;1755949;81;21136;-41
2021/09/01 03:38:20;;;;;;;9.18;5.58;;;;;;;15.39;66.49;98792.38;1770778;79;20973;-41
2021/09/01 03:40:47;;;;;;;9.45;5.95;;;;;;;15.49;66.38;98787.38;1769791;81;21009;-41
2021/09/01 03:43:13;;;;;;;8.70;5.58;;;;;;;15.57;66.67;98782.06;1744311;79;20942;-41
2021/09/01 03:45:40;;;;;;;7.25;6.00;;;;;;;15.65;66.88;98770.45;1742060;82;21013;-41
2021/09/01 03:48:07;;;;;;;8.20;5.75;;;;;;;15.73;67.05;98768.44;1747530;81;21086;-41
2021/09/01 03:50:33;;;;;;;8.13;4.70;;;;;;;15.80;67.14;98781.42;1757522;81;21017;-41
2021/09/01 03:53:00;;;;;;;6.37;4.80;;;;;;;15.86;66.91;98781.16;1761645;81;20989;-41
2021/09/01 03:55:27;;;;;;;7.65;4.87;;;;;;;15.95;66.50;98787.50;1762900;81;21069;-41
2021/09/01 03:57:55;;;;;;;6.00;4.90;;;;;;;15.94;65.99;98787.30;1772787;79;22025;-41
2021/09/01 04:00:22;;;;;;;9.53;5.42;;;;;;;15.89;65.89;98783.06;1765246;79;21131;-41
2021/09/01 04:02:49;;;;;;;10.10;5.10;;;;;;;15.90;66.03;98785.98;1772825;81;20990;-41
2021/09/01 04:05:16;;;;;;;6.62;4.80;;;;;;;15.94;66.32;98789.45;1771196;81;21073;-41
2021/09/01 04:07:43;;;;;;;7.17;5.05;;;;;;;16.00;66.34;98791.14;1772478;81;21038;-41
2021/09/01 04:10:11;;;;;;;8.05;4.75;;;;;;;16.04;66.07;98800.08;1760964;79;21057;-41
2021/09/01 04:12:37;;;;;;;7.10;4.95;;;;;;;16.08;65.76;98794.75;1770883;81;21375;-41
2021/09/01 04:15:06;;;;;;;6.60;4.85;;;;;;;16.13;65.62;98790.00;1757235;79;21016;-41
2021/09/01 04:17:32;;;;;;;11.73;4.80;;;;;;;16.19;65.77;98783.67;1756007;81;21044;-41
2021/09/01 04:19:59;;;;;;;7.95;5.37;;;;;;;16.25;65.96;98784.77;1741939;82;21037;-41
2021/09/01 04:22:26;;;;;;;11.57;4.87;;;;;;;16.30;65.70;98792.52;1741998;81;21370;-41
2021/09/01 04:24:52;;;;;;;6.90;5.08;;;;;;;16.34;65.43;98787.00;1752446;81;21796;-41
2021/09/01 04:27:19;;;;;;;7.92;4.47;;;;;;;16.30;65.54;98792.52;1768340;79;20945;-41
2021/09/01 04:29:45;;;;;;;7.72;4.80;;;;;;;16.31;65.70;98791.94;1771315;80;21392;-41
2021/09/01 04:32:12;;;;;;;7.95;4.58;;;;;;;16.35;65.74;98792.06;1779411;80;21024;-41
2021/09/01 04:34:39;;;;;;;6.15;4.60;;;;;;;16.42;65.65;98789.22;1785957;80;20989;-41
2021/09/01 04:37:05;;;;;;;9.50;4.70;;;;;;;16.42;65.90;98785.70;1770065;79;21102;-41
2021/09/01 04:39:32;;;;;;;5.45;4.00;;;;;;;16.45;66.08;98790.38;1770273;81;21047;-41
2021/09/01 04:41:58;;;;;;;6.10;4.67;;;;;;;16.47;66.38;98798.34;1769012;81;21023;-41
2021/09/01 04:44:25;;;;;;;5.50;4.30;;;;;;;16.44;66.52;98798.39;1771342;81;21611;-41
2021/09/01 04:46:52;;;;;;;9.48;4.42;;;;;;;16.41;66.75;98791.02;1769331;81;21065;-41
2021/09/01 04:49:19;;;;;;;5.37;4.53;;;;;;;16.43;66.93;98792.73;1767687;81;21771;-41
2021/09/01 04:51:45;;;;;;;6.97;4.80;;;;;;;16.51;66.81;98794.17;1764405;81;20930;-41
2021/09/01 04:54:13;;;;;;;9.53;5.15;;;;;;;16.55;66.89;98800.40;1766351;81;20986;-41
2021/09/01 04:56:41;;;;;;;5.67;4.90;;;;;;;16.56;67.00;98800.55;1769923;81;21130;-41
2021/09/01 04:59:07;;;;;;;6.97;5.00;;;;;;;16.56;67.00;98793.71;1771207;79;21464;-41
2021/09/01 05:01:34;;;;;;;8.23;5.25;;;;;;;16.56;67.20;98796.45;1771675;81;21172;-41
2021/09/01 05:04:00;;;;;;;7.53;5.10;;;;;;;16.60;67.35;98792.34;1770023;81;21047;-41
2021/09/01 05:06:27;;;;;;;9.20;4.72;;;;;;;16.64;67.39;98800.69;1766318;79;21481;-41
2021/09/01 05:08:55;;;;;;;6.90;4.75;;;;;;;16.68;67.14;98798.66;1775922;79;21001;-41
2021/09/01 05:11:23;;;;;;;7.30;4.17;;;;;;;16.74;67.02;98797.61;1765370;80;20925;-41
2021/09/01 05:13:51;;;;;;;7.28;5.20;;;;;;;16.74;66.92;98794.88;1773738;79;21084;-42
2021/09/01 05:16:17;;;;;;;7.30;5.47;;;;;;;16.70;66.94;98790.80;1787797;80;21797;-41
2021/09/01 05:18:44;;;;;;;6.12;5.20;;;;;;;16.71;66.52;98794.31;1788099;78;21001;-41
2021/09/01 05:21:13;;;;;;;6.05;4.80;;;;;;;16.65;66.71;98802.83;1786852;79;20995;-41
2021/09/01 05:23:42;;;;;;;9.63;4.60;;;;;;;16.65;66.98;98802.83;1785532;80;21545;-41
2021/09/01 05:26:08;;;;;;;8.03;5.17;;;;;;;16.66;67.21;98807.09;1785810;80;21857;-41
2021/09/01 05:28:36;;;;;;;9.03;5.30;;;;;;;16.67;67.28;98805.32;1785495;80;21024;-41
2021/09/01 05:31:05;;;;;;;8.35;5.28;;;;;;;16.67;67.28;98798.48;1786730;80;21076;-41
2021/09/01 05:33:35;;;;;;;9.28;5.50;;;;;;;16.69;67.33;98796.70;1786633;80;20973;-41
2021/09/01 05:36:06;;;;;;;8.68;5.65;;;;;;;16.75;67.56;98795.05;1787596;80;21526;-41
2021/09/01 05:38:34;;;;;;;8.20;5.15;;;;;;;16.87;67.65;98796.61;1778117;80;21143;-41
2021/09/01 05:41:02;;;;;;;7.45;5.30;;;;;;;16.99;67.39;98801.34;1788564;80;21483;-42
2021/09/01 05:43:28;;;;;;;7.72;4.80;;;;;;;17.14;67.37;98802.63;1777892;79;21065;-41
2021/09/01 05:45:55;;;;;;;8.35;5.65;;;;;;;17.25;67.11;98798.53;1758482;81;20934;-41
2021/09/01 05:48:22;;;;;;;7.72;5.60;;;;;;;17.31;66.37;98799.61;1758266;81;21524;-41
2021/09/01 05:50:54;;;;;;;7.42;5.65;;;;;;;17.35;65.85;98794.06;1763695;80;21113;-41
2021/09/01 05:53:21;;;;;;;7.78;5.30;;;;;;;17.38;65.33;98793.21;1758271;80;21551;-41
2021/09/01 05:55:51;;;;;;;8.03;5.45;;;;;;;17.40;65.63;98792.20;1759454;78;20948;-41
2021/09/01 05:58:19;;;;;;;9.63;5.42;;;;;;;17.48;65.35;98790.88;1758328;81;21514;-41
2021/09/01 06:00:56;;;;;;;10.80;5.65;;;;;;;17.48;65.33;98790.11;1758199;81;21538;-41
2021/09/01 06:03:32;;;;;;;8.28;5.42;;;;;;;17.48;65.91;98790.88;1760480;80;21169;-41
2021/09/01 06:06:01;;;;;;;6.97;5.10;;;;;;;17.51;66.27;98791.43;1789474;80;20921;-41
2021/09/01 06:08:35;;;;;;;13.48;5.80;;;;;;;17.50;66.21;98793.98;1790573;78;20957;-41
2021/09/01 06:11:07;;;;;;;8.83;5.28;;;;;;;17.48;65.76;98792.84;1757163;81;20964;-41
2021/09/01 06:13:35;;;;;;;8.83;5.25;;;;;;;17.44;65.41;98787.44;1761797;79;20984;-41
2021/09/01 06:16:02;;;;;;;7.05;5.55;;;;;;;17.46;65.77;98791.14;1775673;79;21075;-41
2021/09/01 06:18:29;;;;;;;8.38;5.78;;;;;;;17.55;65.79;98795.47;1780689;80;20940;-41
2021/09/01 06:20:55;;;;;;;6.12;5.05;;;;;;;17.59;65.86;98798.34;1782955;80;20976;-41
2021/09/01 06:23:22;;;;;;;10.00;6.03;;;;;;;17.62;65.86;98800.23;1784884;80;21524;-41
2021/09/01 06:25:49;;;;;;;6.25;5.40;;;;;;;17.67;66.13;98802.50;1783525;80;21020;-41
2021/09/01 06:28:17;;;;;;;9.70;5.45;;;;;;;17.73;65.95;98799.45;1784267;79;20930;-41
2021/09/01 06:30:44;;;;;;;8.40;5.90;;;;;;;17.79;65.54;98806.00;1780775;80;21573;-42
2021/09/01 06:33:10;;;;;;;7.03;5.62;;;;;;;17.80;65.21;98811.67;1782336;80;21079;-41
2021/09/01 06:35:40;;;;;;;10.95;6.35;;;;;;;17.75;65.72;98810.78;1785954;80;21023;-41
2021/09/01 06:38:08;;;;;;;6.75;6.05;;;;;;;17.76;66.01;98815.67;1741507;80;21088;-41
2021/09/01 06:40:34;;;;;;;10.25;6.15;;;;;;;17.77;66.08;98807.01;1756477;81;21090;-41
2021/09/01 06:43:01;;;;;;;7.17;5.75;;;;;;;17.73;66.64;98814.53;1759210;80;21645;-42
2021/09/01 06:45:28;;;;;;;8.43;6.72;;;;;;;17.74;66.88;98813.94;1784879;79;21058;-41
2021/09/01 06:47:55;;;;;;;10.88;6.62;;;;;;;17.78;67.31;98811.30;1787143;79;20894;-41
2021/09/01 06:50:24;;;;;;;8.53;6.22;;;;;;;17.81;66.09;98813.19;1783865;79;21024;-41
2021/09/01 06:52:51;;;;;;;8.68;6.83;;;;;;;17.77;66.05;98808.98;1779772;80;21124;-41
2021/09/01 06:55:20;;;;;;;8.63;6.72;;;;;;;17.78;66.59;98804.45;1782086;80;20918;-41
2021/09/01 06:57:46;;;;;;;9.73;7.12;;;;;;;17.80;66.15;98807.56;1781683;79;21548;-41
2021/09/01 07:00:16;;;;;;;7.55;6.67;;;;;;;17.79;66.21;98808.75;1781557;80;20986;-41
2021/09/01 07:02:42;;;;;;;11.33;7.03;;;;;;;17.82;65.91;98812.60;1786903;80;21087;-41
2021/09/01 07:05:12;;;;;;;9.03;6.40;;;;;;;17.87;65.85;98808.00;1780234;80;21492;-42
2021/09/01 07:07:42;;;;;;;8.03;6.83;;;;;;;17.95;65.63;98805.31;1783293;80;20890;-41
2021/09/01 07:10:10;;;;;;;7.45;6.40;;;;;;;18.07;65.16;98803.30;1784654;80;22186;-42
2021/09/01 07:12:36;;;;;;;8.25;6.22;;;;;;;18.17;64.77;98808.39;1784151;80;20921;-42
2021/09/01 07:15:09;;;;;;;9.55;6.55;;;;;;;18.23;64.23;98813.56;1779770;80;20969;-42
2021/09/01 07:17:37;;;;;;;12.37;6.85;;;;;;;18.27;64.26;98814.25;1782095;78;22117;-42
2021/09/01 07:20:06;;;;;;;7.92;6.75;;;;;;;18.25;64.60;98816.64;1774037;79;21527;-42
2021/09/01 07:22:33;;;;;;;9.50;6.05;;;;;;;18.22;64.55;98822.98;1780336;80;21049;-42
2021/09/01 07:25:03;;;;;;;8.98;6.20;;;;;;;18.18;65.15;98825.80;1764494;80;21012;-42
2021/09/01 07:27:30;;;;;;;8.83;6.33;;;;;;;18.21;65.37;98830.44;1766004;80;21020;-42
2021/09/01 07:29:56;;;;;;;9.15;6.62;;;;;;;18.27;65.02;98831.31;1786970;80;21115;-42
2021/09/01 07:32:23;;;;;;;7.30;6.30;;;;;;;18.26;65.30;98825.05;1784858;80;21455;-42
2021/09/01 07:35:06;;;;;;;9.58;6.03;;;;;;;18.23;65.23;98834.14;1782134;78;20998;-42
2021/09/01 07:37:33;;;;;;;7.92;6.17;;;;;;;18.22;65.29;98838.07;1770300;78;21048;-42
2021/09/01 07:40:00;;;;;;;7.03;5.87;;;;;;;18.18;65.76;98840.13;1781853;79;21572;-42
2021/09/01 07:42:26;;;;;;;6.33;5.12;;;;;;;18.21;65.47;98836.52;1781558;80;21807;-43
2021/09/01 07:44:53;;;;;;;10.00;5.30;;;;;;;18.26;65.13;98827.80;1784801;80;20925;-42
2021/09/01 07:47:20;;;;;;;7.80;6.28;;;;;;;18.33;65.24;98835.89;1786466;80;20969;-43
2021/09/01 07:49:47;;;;;;;10.08;5.85;;;;;;;18.34;65.07;98836.08;1782647;80;21075;-43
2021/09/01 07:52:14;;;;;;;8.43;5.95;;;;;;;18.34;65.15;98831.95;1780675;80;21083;-43
2021/09/01 07:54:40;;;;;;;8.28;5.53;;;;;;;18.37;65.40;98831.70;1781050;80;23065;-43
2021/09/01 07:57:07;;;;;;;9.43;5.40;;;;;;;18.44;64.96;98823.33;1780011;80;21020;-42
2021/09/01 07:59:33;;;;;;;8.58;5.50;;;;;;;18.53;64.49;98827.06;1782745;80;21001;-42
2021/09/01 08:02:00;;;;;;;7.15;5.83;;;;;;;18.61;64.47;98826.30;1786182;80;21019;-43
2021/09/01 08:04:27;;;;;;;9.23;6.28;;;;;;;18.68;64.68;98822.03;1781711;80;21076;-42
2021/09/01 08:06:54;;;;;;;11.30;5.85;;;;;;;18.78;64.46;98825.73;1778564;80;21310;-43
2021/09/01 08:09:20;;;;;;;6.70;5.95;;;;;;;18.82;64.22;98813.47;1779851;80;21579;-43
2021/09/01 08:11:47;;;;;;;9.70;5.92;;;;;;;18.87;64.11;98812.97;1781308;80;20972;-43
2021/09/01 08:14:13;;;;;;;7.85;5.55;;;;;;;18.97;64.19;98813.91;1762301;80;20948;-42
2021/09/01 08:16:40;;;;;;;8.73;5.42;;;;;;;19.13;64.28;98809.77;1759682;80;21561;-43
2021/09/01 08:19:07;;;;;;;8.45;5.92;;;;;;;19.34;63.71;98807.88;1783105;80;21095;-43
2021/09/01 08:21:34;;;;;;;7.37;5.42;;;;;;;19.57;62.90;98812.42;1783122;80;20972;-43
2021/09/01 08:24:00;;;;;;;6.50;5.17;;;;;;;19.75;62.80;98813.34;1783084;80;21040;-42
2021/09/01 08:26:28;;;;;;;12.15;6.08;;;;;;;19.95;61.74;98812.56;1769917;80;20948;-43
2021/09/01 08:28:54;;;;;;;6.42;5.35;;;;;;;20.11;61.39;98812.52;1783307;80;21094;-42
2021/09/01 08:31:21;;;;;;;8.50;6.10;;;;;;;20.23;59.98;98806.28;1783151;80;21141;-43
2021/09/01 08:33:48;;;;;;;8.85;6.28;;;;;;;20.35;59.41;98801.42;1763410;80;20952;-43
2021/09/01 08:36:15;;;;;;;9.28;6.37;;;;;;;20.49;59.77;98806.33;1781136;80;20992;-43
2021/09/01 08:38:42;;;;;;;8.88;7.08;;;;;;;20.63;59.42;98799.78;1778369;80;21032;-43
2021/09/01 08:41:09;;;;;;;9.20;7.40;;;;;;;20.80;59.12;98808.12;1783286;80;21087;-43
2021/09/01 08:43:37;;;;;;;9.68;6.95;;;;;;;20.98;58.62;98797.91;1727469;80;21225;-42
2021/09/01 08:46:03;;;;;;;11.73;7.22;;;;;;;21.15;58.07;98800.73;1782950;80;20991;-43
2021/09/01 08:48:31;;;;;;;18.27;7.62;;;;;;;21.31;57.11;98803.16;1767585;80;21558;-43
2021/09/01 08:50:57;;;;;;;7.20;5.53;;;;;;;21.45;57.03;98799.92;1773905;80;20980;-42
2021/09/01 08:53:24;;;;;;;13.32;8.43;;;;;;;21.57;56.13;98796.36;1767603;80;21052;-42
2021/09/01 08:55:50;;;;;;;7.12;5.97;;;;;;;21.72;56.00;98796.03;1762778;80;21125;-43
2021/09/01 08:58:17;;;;;;;9.70;5.20;;;;;;;21.89;55.27;98798.76;1753102;80;21554;-42
2021/09/01 09:00:44;;;;;;;7.90;4.47;;;;;;;22.08;54.71;98796.31;1753615;80;21032;-41
2021/09/01 09:03:11;;;;;;;4.97;4.37;;;;;;;22.29;53.71;98793.38;1752008;81;21557;-42
2021/09/01 09:05:41;;;;;;;5.47;4.40;;;;;;;22.49;53.17;98794.41;1774972;80;21065;-42
2021/09/01 09:08:12;;;;;;;8.53;5.08;;;;;;;22.62;51.99;98792.91;1778340;80;21801;-42
2021/09/01 09:10:44;;;;;;;5.62;4.08;;;;;;;22.64;51.43;98792.63;1751931;81;21028;-42
2021/09/01 09:13:29;;;;;;;6.92;4.03;;;;;;;;;;1753716;80;21015;-42
2021/09/01 09:16:09;;;;;;;7.67;3.80;;;;;;;22.62;52.01;98790.15;1768895;80;21016;-42
2021/09/01 09:18:38;;;;;;;5.95;4.22;;;;;;;22.71;51.94;98791.59;1758746;80;21292;-42
2021/09/01 09:21:20;;;;;;;6.30;3.85;;;;;;;22.80;51.22;98792.39;1754245;80;21848;-42
2021/09/01 09:23:50;;;;;;;6.33;4.20;;;;;;;22.92;50.37;98796.28;1764108;80;20905;-42
2021/09/01 09:27:20;;;;;;;8.90;3.87;;;;;;;23.07;50.46;98786.80;1803823;78;22715;-42
2021/09/01 09:29:48;;;;;;;6.40;3.23;;;;;;;23.13;50.30;98788.52;1742636;81;21024;-42
2021/09/01 09:32:15;;;;;;;5.60;3.37;;;;;;;23.24;48.72;98778.38;1715870;83;21349;-41
2021/09/01 09:34:43;;;;;;;7.97;3.40;;;;;;;23.36;47.77;98778.25;1725989;83;21026;-42
2021/09/01 09:37:14;;;;;;;4.85;2.92;;;;;;;23.50;45.38;98780.28;1722777;83;21027;-42
2021/09/01 09:39:50;;;;;;;3.65;3.05;;;;;;;23.53;44.15;98778.73;1716472;83;20980;-42
2021/09/01 09:42:35;;;;;;;3.47;2.90;;;;;;;23.56;43.57;98777.06;1680625;85;21013;-41
2021/09/01 09:45:26;;;;;;;3.42;2.52;;;;;;;23.56;43.14;98781.22;1709692;82;21066;-41
2021/09/01 09:47:55;;;;;;;4.50;2.67;;;;;;;23.60;43.01;98772.91;1712568;83;20966;-41
2021/09/01 09:50:22;;;;;;;3.75;2.70;;;;;;;23.62;42.46;98782.14;1712064;83;21023;-41
2021/09/01 09:52:50;;;;;;;5.03;2.85;;;;;;;23.64;42.00;98773.52;1709583;83;20997;-41
2021/09/01 09:55:19;;;;;;;5.08;2.90;;;;;;;23.67;42.53;98777.38;1703694;83;21057;-41
2021/09/01 09:57:52;;;;;;;4.08;3.27;;;;;;;23.70;44.42;98775.83;1730163;82;21140;-41
2021/09/01 10:00:21;;;;;;;3.52;2.77;;;;;;;23.74;43.59;98775.06;1694445;84;20995;-41
2021/09/01 10:02:48;;;;;;;4.47;3.05;;;;;;;23.74;43.86;98776.44;1704040;83;21023;-41
2021/09/01 10:05:17;;;;;;;3.17;2.87;;;;;;;23.82;43.97;98769.97;1700262;83;21108;-41
2021/09/01 10:07:44;;;;;;;3.52;2.80;;;;;;;23.96;43.61;98769.36;1695116;83;21024;-41
2021/09/01 10:10:12;;;;;;;3.85;2.77;;;;;;;24.14;43.84;98762.39;1717482;81;21869;-41
2021/09/01 10:12:46;;;;;;;3.08;2.77;;;;;;;24.41;42.86;98765.72;1693113;83;21272;-41
2021/09/01 10:15:32;;;;;;;4.42;2.87;;;;;;;24.61;43.51;98761.80;1674884;85;20994;-41
2021/09/01 10:18:04;;;;;;;3.72;2.50;;;;;;;24.81;42.12;98754.92;1710605;83;21534;-41
2021/09/01 10:20:30;;;;;;;4.65;3.12;;;;;;;24.94;41.40;98754.10;1718091;83;21021;-41
2021/09/01 10:23:04;;;;;;;3.12;2.75;;;;;;;25.07;41.44;98747.72;1715348;83;21119;-41
2021/09/01 10:25:45;;;;;;;3.60;2.47;;;;;;;25.21;40.25;98755.34;1718774;83;21094;-41
2021/09/01 10:28:38;;;;;;;4.90;2.85;;;;;;;25.28;39.07;98750.03;1770665;80;21034;-41
2021/09/01 10:31:13;;;;;;;3.72;2.70;;;;;;;25.35;40.66;98750.45;1754538;80;21085;-41
2021/09/01 10:33:45;;;;;;;4.58;3.20;;;;;;;25.61;40.30;98743.03;1752333;81;21351;-42
2021/09/01 10:36:26;;;;;;;3.60;2.92;;;;;;;25.91;40.41;98745.35;1704017;84;21135;-41
2021/09/01 10:39:10;;;;;;;3.60;2.90;;;;;;;26.14;39.32;98742.33;1666048;83;21316;-42
2021/09/01 10:41:38;;;;;;;3.75;3.02;;;;;;;26.32;39.18;98741.41;1744016;80;20997;-41
2021/09/01 10:44:11;;;;;;;3.75;3.10;;;;;;;26.49;38.01;98741.66;1745638;80;21025;-41
2021/09/01 10:47:00;;;;;;;4.17;3.20;;;;;;;26.58;37.11;98743.70;1688745;84;21530;-42
2021/09/01 10:49:48;;;;;;;3.37;3.08;;;;;;;26.70;38.24;98732.89;1694484;84;21139;-41
2021/09/01 10:52:15;;;;;;;3.58;2.62;;;;;;;26.85;37.40;98732.84;1689600;84;21031;-42
2021/09/01 10:54:43;;;;;;;3.17;2.87;;;;;;;27.03;37.21;98734.00;1706197;84;21532;-42
2021/09/01 10:57:28;;;;;;;4.33;3.10;;;;;;;27.11;36.15;98726.76;1677284;81;21041;-41
2021/09/01 11:00:00;;;;;;;3.33;2.50;;;;;;;27.17;35.87;98731.77;1757775;81;21595;-42
2021/09/01 11:02:26;;;;;;;3.33;2.80;;;;;;;27.26;35.49;98735.03;1704168;80;21797;-42
2021/09/01 11:04:56;;;;;;;4.05;2.33;;;;;;;27.47;35.53;98739.35;1687121;83;21024;-42
2021/09/01 11:07:29;;;;;;;2.85;2.47;;;;;;;27.68;35.03;98740.75;1744807;81;21487;-42
2021/09/01 11:10:02;;;;;;;2.98;2.55;;;;;;;27.74;33.01;98731.83;1738986;80;20979;-42
2021/09/01 11:12:31;;;;;;;4.95;2.60;;;;;;;27.71;34.43;98745.33;1735342;80;21029;-42
2021/09/01 11:14:58;;;;;;;2.83;2.50;;;;;;;27.72;34.41;98737.88;1744574;80;21097;-41
2021/09/01 11:17:28;;;;;;;6.42;2.83;;;;;;;27.79;34.92;98746.44;1736935;81;21089;-41
2021/09/01 11:20:00;;;;;;;2.30;2.10;;;;;;;27.99;35.79;98740.16;1735705;80;20944;-41
2021/09/01 11:22:35;;;;;;;3.10;2.55;;;;;;;28.33;32.49;98743.27;1734338;80;21053;-42
2021/09/01 11:25:07;;;;;;;4.67;2.80;;;;;;;28.38;32.58;98743.31;1695151;82;21092;-42
2021/09/01 11:27:36;;;;;;;2.65;1.90;;;;;;;28.17;32.29;98742.52;1748560;81;21098;-41
2021/09/01 11:30:10;;;;;;;2.42;2.22;;;;;;;28.08;32.82;98737.83;1739474;82;20949;-42
2021/09/01 11:32:39;;;;;;;4.35;2.20;;;;;;;28.26;31.28;98740.94;1699831;83;20978;-42
2021/09/01 11:35:09;;;;;;;3.70;2.00;;;;;;;28.38;31.54;98736.34;1751501;82;21020;-42
2021/09/01 11:37:37;;;;;;;2.20;2.00;;;;;;;28.35;30.82;98741.52;1743410;82;21518;-42
2021/09/01 11:40:05;;;;;;;2.10;1.92;;;;;;;28.24;31.63;98730.91;1743718;82;21149;-42
2021/09/01 11:42:36;;;;;;;2.07;1.77;;;;;;;28.25;32.96;98732.44;1727039;82;21776;-42